Time;durP1;ratioP1;P1;durP2;ratioP2;P2;SDS_P1;SDS_P2;PMS_P1;PMS_P2;Temp;Humidity;BMP_temperature;BMP_pressure;BME280_temperature;BME280_humidity;BME280_pressure;Samples;Min_cycle;Max_cycle;Signal;HPM_P1;HPM_P2
2024/01/20 00:01:48;;;;;;;2.95;2.08;;;6.00;80.20;;;;;;4938449;29;20446;-78
2024/01/20 00:04:15;;;;;;;3.30;2.33;;;6.00;79.90;;;;;;4950551;29;20062;-78
2024/01/20 00:06:40;;;;;;;3.80;2.50;;;6.00;80.20;;;;;;4942941;29;20328;-78
2024/01/20 00:09:07;;;;;;;3.15;2.42;;;5.90;80.10;;;;;;4954621;29;20027;-78
2024/01/20 00:11:32;;;;;;;4.18;2.65;;;5.90;80.40;;;;;;4925351;29;20040;-78
2024/01/20 00:13:58;;;;;;;3.88;2.72;;;5.90;80.30;;;;;;4937021;29;20030;-78
2024/01/20 00:16:24;;;;;;;3.13;2.40;;;5.90;80.60;;;;;;4945818;29;20406;-78
2024/01/20 00:18:49;;;;;;;5.18;2.30;;;5.90;80.70;;;;;;4937741;29;20019;-78
2024/01/20 00:21:15;;;;;;;2.50;2.10;;;5.90;80.60;;;;;;4948017;29;20042;-78
2024/01/20 00:23:41;;;;;;;2.97;2.08;;;5.90;80.40;;;;;;4948911;29;20031;-77
2024/01/20 00:26:06;;;;;;;3.45;2.20;;;5.90;80.50;;;;;;4936558;29;20031;-78
2024/01/20 00:28:32;;;;;;;2.95;1.80;;;5.90;80.50;;;;;;4935924;29;20054;-77
2024/01/20 00:30:57;;;;;;;5.00;2.40;;;5.90;79.70;;;;;;4954452;29;20028;-77
2024/01/20 00:33:23;;;;;;;4.55;2.20;;;5.80;79.00;;;;;;4955545;29;20031;-78
2024/01/20 00:35:49;;;;;;;3.88;2.20;;;5.80;78.90;;;;;;4948776;29;20110;-78
2024/01/20 00:38:14;;;;;;;4.13;2.28;;;5.80;78.90;;;;;;4948922;29;20032;-78
2024/01/20 00:40:40;;;;;;;4.40;2.33;;;5.80;78.90;;;;;;4949788;29;20046;-78
2024/01/20 00:43:06;;;;;;;5.43;2.38;;;5.80;78.30;;;;;;4941209;29;20401;-78
2024/01/20 00:45:31;;;;;;;3.90;2.15;;;5.70;77.10;;;;;;4949535;29;20091;-78
2024/01/20 00:47:57;;;;;;;3.88;2.47;;;5.70;78.40;;;;;;4947813;29;20046;-78
2024/01/20 00:50:23;;;;;;;6.20;3.05;;;5.60;78.70;;;;;;4951188;28;20043;-77
2024/01/20 00:52:49;;;;;;;5.20;2.60;;;5.60;78.80;;;;;;4936170;29;20514;-78
2024/01/20 00:55:14;;;;;;;4.28;2.67;;;5.60;78.80;;;;;;4936165;29;20107;-78
2024/01/20 00:57:40;;;;;;;4.45;2.83;;;5.50;78.90;;;;;;4936791;29;20046;-78
2024/01/20 01:00:09;;;;;;;4.00;2.75;;;5.50;79.40;;;;;;4936254;29;20036;-78
2024/01/20 01:02:38;;;;;;;2.80;2.45;;;5.50;79.50;;;;;;4935970;29;20051;-78
2024/01/20 01:05:05;;;;;;;4.28;3.00;;;5.50;79.40;;;;;;4935899;29;20163;-79
2024/01/20 01:07:32;;;;;;;4.28;2.45;;;5.50;79.80;;;;;;4936005;29;20039;-78
2024/01/20 01:09:58;;;;;;;4.80;2.80;;;5.50;79.70;;;;;;4935667;29;20032;-78
2024/01/20 01:12:24;;;;;;;2.85;2.50;;;5.50;79.40;;;;;;4936169;29;20054;-78
2024/01/20 01:14:49;;;;;;;3.42;2.28;;;5.50;79.30;;;;;;4936087;29;20475;-78
2024/01/20 01:17:16;;;;;;;3.97;2.40;;;5.50;79.60;;;;;;4935295;29;20023;-78
2024/01/20 01:19:42;;;;;;;4.03;2.95;;;5.50;79.80;;;;;;4936125;29;20036;-78
2024/01/20 01:22:08;;;;;;;3.95;2.65;;;5.50;79.80;;;;;;4953448;29;20035;-78
2024/01/20 01:24:34;;;;;;;2.72;1.80;;;5.50;80.00;;;;;;4941855;29;20039;-77
2024/01/20 01:27:00;;;;;;;4.00;3.05;;;5.50;80.10;;;;;;4948903;29;20482;-77
2024/01/20 01:29:26;;;;;;;5.60;3.17;;;5.40;78.90;;;;;;4935958;29;20470;-78
2024/01/20 01:31:51;;;;;;;5.53;3.30;;;5.30;79.10;;;;;;4935553;29;20031;-77
2024/01/20 01:34:17;;;;;;;4.70;3.00;;;5.20;79.50;;;;;;4935895;29;20358;-77
2024/01/20 01:36:43;;;;;;;3.95;2.60;;;5.20;79.90;;;;;;4935566;29;20513;-77
2024/01/20 01:39:09;;;;;;;4.53;3.15;;;5.10;79.80;;;;;;4935094;29;20097;-77
2024/01/20 01:41:35;;;;;;;3.72;2.65;;;5.10;80.10;;;;;;4935623;29;20435;-77
2024/01/20 01:44:02;;;;;;;3.72;2.85;;;5.10;80.20;;;;;;4931814;29;20035;-77
2024/01/20 01:46:29;;;;;;;3.00;2.17;;;5.10;80.00;;;;;;4952503;29;20037;-80
2024/01/20 01:48:55;;;;;;;3.40;2.25;;;5.10;79.80;;;;;;4936035;29;20418;-81
2024/01/20 01:51:21;;;;;;;4.00;2.45;;;5.20;79.80;;;;;;4930028;29;20027;-81
2024/01/20 01:53:47;;;;;;;3.30;2.25;;;5.10;79.80;;;;;;4953332;29;20500;-80
2024/01/20 01:56:14;;;;;;;3.92;2.60;;;5.10;79.50;;;;;;4954395;29;20366;-80
2024/01/20 01:58:42;;;;;;;2.88;2.42;;;5.10;79.00;;;;;;4938097;29;20159;-81
2024/01/20 02:01:08;;;;;;;4.15;3.13;;;5.10;79.50;;;;;;4920186;29;20040;-80
2024/01/20 02:03:34;;;;;;;3.88;2.35;;;5.10;79.10;;;;;;4941884;29;20058;-81
2024/01/20 02:06:00;;;;;;;4.93;2.60;;;5.00;79.20;;;;;;4948214;29;20595;-80
2024/01/20 02:08:27;;;;;;;4.32;2.58;;;5.00;80.20;;;;;;4944827;29;20067;-80
2024/01/20 02:10:53;;;;;;;3.15;2.20;;;4.90;79.80;;;;;;4942630;29;20067;-80
2024/01/20 02:13:21;;;;;;;6.43;2.80;;;4.90;80.00;;;;;;4938915;29;20438;-80
2024/01/20 02:15:48;;;;;;;3.50;2.63;;;4.90;79.80;;;;;;4940456;29;20028;-80
2024/01/20 02:18:14;;;;;;;4.57;2.72;;;4.90;79.80;;;;;;4952256;29;20056;-81
2024/01/20 02:20:39;;;;;;;5.55;2.60;;;4.90;79.80;;;;;;4934957;29;20652;-81
2024/01/20 02:23:05;;;;;;;4.13;2.58;;;4.90;79.40;;;;;;4939316;29;20126;-80
2024/01/20 02:25:31;;;;;;;3.50;2.55;;;4.90;79.40;;;;;;4944920;29;20035;-79
2024/01/20 02:27:57;;;;;;;3.88;2.30;;;5.00;79.30;;;;;;4930379;29;20067;-80
2024/01/20 02:30:22;;;;;;;3.40;2.45;;;5.00;79.10;;;;;;4949862;29;20031;-79
2024/01/20 02:32:48;;;;;;;3.35;2.17;;;5.00;79.30;;;;;;4938061;29;20031;-80
2024/01/20 02:35:16;;;;;;;4.03;2.15;;;5.00;79.20;;;;;;4941928;29;20152;-81
2024/01/20 02:37:41;;;;;;;3.08;1.80;;;5.00;78.90;;;;;;4949108;29;20027;-81
2024/01/20 02:40:07;;;;;;;2.47;1.67;;;5.00;78.50;;;;;;4927918;29;20046;-81
2024/01/20 02:42:33;;;;;;;4.25;2.30;;;5.00;78.40;;;;;;4938737;29;20042;-81
2024/01/20 02:44:59;;;;;;;3.10;2.03;;;4.90;78.60;;;;;;4951029;29;20023;-81
2024/01/20 02:47:24;;;;;;;4.85;2.28;;;4.90;79.00;;;;;;4938421;29;20091;-81
2024/01/20 02:49:50;;;;;;;3.55;2.10;;;5.00;79.20;;;;;;4955317;29;20039;-80
2024/01/20 02:52:16;;;;;;;4.05;2.25;;;4.90;78.70;;;;;;4938694;29;20036;-80
2024/01/20 02:54:41;;;;;;;4.43;2.05;;;4.90;76.80;;;;;;4921898;29;20028;-80
2024/01/20 02:57:07;;;;;;;3.28;2.00;;;4.90;77.60;;;;;;4940236;29;20524;-80
2024/01/20 02:59:33;;;;;;;3.80;2.22;;;4.90;77.70;;;;;;4948704;29;20035;-81
2024/01/20 03:02:01;;;;;;;4.38;2.22;;;4.90;77.40;;;;;;4941483;29;20071;-81
2024/01/20 03:04:28;;;;;;;2.63;1.92;;;4.80;77.70;;;;;;4939522;29;20028;-81
2024/01/20 03:06:53;;;;;;;3.70;1.90;;;4.80;78.00;;;;;;4942721;29;20372;-81
2024/01/20 03:09:19;;;;;;;3.17;2.10;;;4.80;77.70;;;;;;4945922;29;20042;-81
2024/01/20 03:11:45;;;;;;;2.65;1.70;;;4.80;77.90;;;;;;4953012;28;20118;-81
2024/01/20 03:14:10;;;;;;;3.20;1.77;;;4.80;78.30;;;;;;4944803;29;20497;-81
2024/01/20 03:16:37;;;;;;;2.38;1.63;;;4.80;78.40;;;;;;4952147;29;20032;-81
2024/01/20 03:19:03;;;;;;;3.65;1.80;;;4.80;78.40;;;;;;4938757;29;20046;-81
2024/01/20 03:21:29;;;;;;;3.03;1.73;;;4.80;78.50;;;;;;4944725;29;20444;-81
2024/01/20 03:23:55;;;;;;;3.33;1.75;;;4.80;78.10;;;;;;4929787;29;20043;-82
2024/01/20 03:26:21;;;;;;;2.25;1.40;;;4.80;77.80;;;;;;4927549;29;20043;-81
2024/01/20 03:28:47;;;;;;;2.92;1.52;;;4.70;77.70;;;;;;4938098;29;20035;-81
2024/01/20 03:31:12;;;;;;;3.38;2.00;;;4.70;77.70;;;;;;4942370;29;20044;-82
2024/01/20 03:33:38;;;;;;;4.43;1.63;;;4.70;78.10;;;;;;4939104;29;20020;-81
2024/01/20 03:36:04;;;;;;;3.50;1.52;;;4.60;78.30;;;;;;4943956;29;20024;-82
2024/01/20 03:38:30;;;;;;;2.15;1.63;;;4.60;77.60;;;;;;4951542;29;20067;-82
2024/01/20 03:40:55;;;;;;;2.22;1.42;;;4.60;78.00;;;;;;4948008;29;20448;-82
2024/01/20 03:43:21;;;;;;;1.70;1.20;;;4.60;77.90;;;;;;4956839;29;20083;-82
2024/01/20 03:45:47;;;;;;;2.03;1.30;;;4.60;78.00;;;;;;4946999;29;20027;-81
2024/01/20 03:48:13;;;;;;;3.15;1.77;;;4.60;77.70;;;;;;4945844;29;20027;-82
2024/01/20 03:50:38;;;;;;;2.22;1.50;;;4.60;77.40;;;;;;4945615;29;20371;-82
2024/01/20 03:53:05;;;;;;;1.65;1.20;;;4.60;77.70;;;;;;4918763;29;20369;-82
2024/01/20 03:55:31;;;;;;;2.17;1.45;;;4.60;77.50;;;;;;4931033;29;20039;-82
2024/01/20 03:57:57;;;;;;;2.85;1.70;;;4.60;77.10;;;;;;4946580;29;20047;-81
2024/01/20 04:00:23;;;;;;;2.10;1.17;;;4.60;77.10;;;;;;4942380;29;20062;-81
2024/01/20 04:02:49;;;;;;;2.33;1.20;;;4.60;77.00;;;;;;4929072;29;20472;-81
2024/01/20 04:05:14;;;;;;;2.03;1.52;;;4.60;76.70;;;;;;4942921;29;20042;-82
2024/01/20 04:07:40;;;;;;;2.25;1.25;;;4.60;76.60;;;;;;4919911;29;20040;-81
2024/01/20 04:10:06;;;;;;;2.63;1.73;;;4.50;75.90;;;;;;4938139;29;20040;-82
2024/01/20 04:12:32;;;;;;;2.65;1.67;;;4.50;75.90;;;;;;4933090;29;20019;-81
2024/01/20 04:14:57;;;;;;;0.90;0.77;;;4.40;74.70;;;;;;4942734;29;20087;-80
2024/01/20 04:17:23;;;;;;;1.23;0.95;;;4.30;75.80;;;;;;4955775;29;20019;-81
2024/01/20 04:19:49;;;;;;;1.52;1.10;;;4.30;75.90;;;;;;4956068;29;20093;-81
2024/01/20 04:22:14;;;;;;;1.08;0.85;;;4.30;76.00;;;;;;4937977;29;20475;-81
2024/01/20 04:24:40;;;;;;;1.10;0.90;;;4.40;76.40;;;;;;4941892;29;20461;-81
2024/01/20 04:27:06;;;;;;;1.17;1.00;;;4.40;76.30;;;;;;4936361;29;20090;-80
2024/01/20 04:29:32;;;;;;;3.55;1.13;;;4.40;75.50;;;;;;4936699;29;20450;-80
2024/01/20 04:31:58;;;;;;;2.55;1.23;;;4.40;75.50;;;;;;4951626;29;20027;-80
2024/01/20 04:34:23;;;;;;;2.75;1.55;;;4.40;75.50;;;;;;4950114;29;20402;-80
2024/01/20 04:36:49;;;;;;;1.42;1.20;;;4.50;75.40;;;;;;4939733;29;20111;-80
2024/01/20 04:39:15;;;;;;;1.65;1.05;;;4.50;74.50;;;;;;4947176;29;20047;-81
2024/01/20 04:41:40;;;;;;;1.73;1.00;;;4.40;74.30;;;;;;4937529;29;20047;-81
2024/01/20 04:44:06;;;;;;;1.23;0.90;;;4.40;75.00;;;;;;4919907;29;20058;-81
2024/01/20 04:46:32;;;;;;;2.10;1.17;;;4.40;75.00;;;;;;4938403;29;20466;-80
2024/01/20 04:48:58;;;;;;;1.00;0.80;;;4.20;73.90;;;;;;4937143;29;20417;-80
2024/01/20 04:51:23;;;;;;;2.58;1.10;;;4.20;74.50;;;;;;4942488;29;20400;-80
2024/01/20 04:53:49;;;;;;;3.72;1.55;;;4.20;74.60;;;;;;4955336;29;20035;-80
2024/01/20 04:56:22;;;;;;;2.42;1.50;;;4.10;73.90;;;;;;4953116;29;20035;-80
2024/01/20 04:58:49;;;;;;;1.50;1.20;;;4.10;73.60;;;;;;4941885;29;20537;-80
2024/01/20 05:01:15;;;;;;;1.52;1.23;;;4.00;74.70;;;;;;4949576;29;20046;-80
2024/01/20 05:03:40;;;;;;;2.95;1.17;;;4.10;75.30;;;;;;4953413;29;20405;-80
2024/01/20 05:06:06;;;;;;;2.20;1.27;;;4.10;75.40;;;;;;4941688;29;20035;-79
2024/01/20 05:08:32;;;;;;;1.77;0.80;;;4.10;74.70;;;;;;4943246;29;20028;-79
2024/01/20 05:10:58;;;;;;;1.70;1.10;;;4.00;72.80;;;;;;4937157;29;20490;-79
2024/01/20 05:13:23;;;;;;;1.75;1.10;;;4.00;73.50;;;;;;4936206;29;20498;-78
2024/01/20 05:15:49;;;;;;;1.23;1.02;;;4.10;74.00;;;;;;4949450;29;20070;-79
2024/01/20 05:18:15;;;;;;;1.77;1.17;;;4.10;74.40;;;;;;4951137;29;20034;-80
2024/01/20 05:20:40;;;;;;;1.50;0.93;;;4.20;74.30;;;;;;4937854;29;20079;-80
2024/01/20 05:23:06;;;;;;;0.98;0.77;;;4.20;73.00;;;;;;4936001;29;20463;-80
2024/01/20 05:25:32;;;;;;;1.13;1.00;;;4.20;72.90;;;;;;4938854;29;20032;-80
2024/01/20 05:27:57;;;;;;;1.80;1.10;;;4.30;72.70;;;;;;4944731;29;20032;-80
2024/01/20 05:30:23;;;;;;;1.95;1.00;;;4.30;72.40;;;;;;4946017;29;20131;-80
2024/01/20 05:32:49;;;;;;;1.75;0.90;;;4.40;72.60;;;;;;4935692;29;20036;-80
2024/01/20 05:35:15;;;;;;;1.55;1.08;;;4.40;72.50;;;;;;4934798;29;20074;-81
2024/01/20 05:37:41;;;;;;;2.45;0.93;;;4.40;72.60;;;;;;4948603;29;20020;-80
2024/01/20 05:40:07;;;;;;;1.42;0.90;;;4.40;73.20;;;;;;4945955;29;20382;-80
2024/01/20 05:42:33;;;;;;;1.73;0.77;;;4.40;72.70;;;;;;4935541;29;20548;-78
2024/01/20 05:44:59;;;;;;;1.88;1.10;;;4.40;72.80;;;;;;4936458;29;20106;-80
2024/01/20 05:47:25;;;;;;;1.95;1.10;;;4.40;72.60;;;;;;4935918;29;20026;-81
2024/01/20 05:49:51;;;;;;;1.60;1.05;;;4.40;72.30;;;;;;4944057;29;20039;-81
2024/01/20 05:52:17;;;;;;;1.45;1.00;;;4.30;70.40;;;;;;4943371;29;20042;-81
2024/01/20 05:54:42;;;;;;;1.33;0.90;;;4.30;71.90;;;;;;4946755;29;20027;-80
2024/01/20 05:57:08;;;;;;;1.85;0.80;;;4.20;70.70;;;;;;4950815;29;20040;-81
2024/01/20 05:59:34;;;;;;;3.80;1.40;;;4.10;70.80;;;;;;4935193;29;20035;-80
2024/01/20 06:02:00;;;;;;;1.70;0.70;;;4.10;71.20;;;;;;4935530;29;20036;-80
2024/01/20 06:04:26;;;;;;;2.47;0.90;;;4.00;70.60;;;;;;4939823;29;20028;-79
2024/01/20 06:06:52;;;;;;;2.35;1.17;;;4.00;71.90;;;;;;4935149;29;20426;-79
2024/01/20 06:09:18;;;;;;;1.98;1.10;;;4.10;72.70;;;;;;4934952;29;20039;-79
2024/01/20 06:11:44;;;;;;;1.80;0.90;;;4.10;72.90;;;;;;4935943;29;20023;-79
2024/01/20 06:14:09;;;;;;;1.10;0.82;;;4.20;72.70;;;;;;4946905;29;20031;-78
2024/01/20 06:16:38;;;;;;;1.63;1.13;;;4.20;72.80;;;;;;4950188;29;20054;-79
2024/01/20 06:19:04;;;;;;;1.88;0.93;;;4.20;73.10;;;;;;4938543;29;20031;-78
2024/01/20 06:21:30;;;;;;;1.85;1.05;;;4.30;73.00;;;;;;4942998;29;20361;-79
2024/01/20 06:23:56;;;;;;;1.40;0.95;;;4.30;72.30;;;;;;4945828;29;20028;-79
2024/01/20 06:26:22;;;;;;;1.38;0.98;;;4.30;72.50;;;;;;4938794;29;20043;-79
2024/01/20 06:28:47;;;;;;;2.60;1.20;;;4.30;72.20;;;;;;4940167;29;21085;-79
2024/01/20 06:31:27;;;;;;;1.52;0.80;;;4.30;72.20;;;;;;4913871;29;20050;-78
2024/01/20 06:33:53;;;;;;;1.15;0.80;;;4.30;72.00;;;;;;4934343;29;20043;-78
2024/01/20 06:36:21;;;;;;;1.30;0.60;;;4.30;70.20;;;;;;4935071;29;20040;-78
2024/01/20 06:38:49;;;;;;;2.72;1.15;;;4.20;70.90;;;;;;4935096;29;20348;-78
2024/01/20 06:41:15;;;;;;;1.40;0.90;;;4.30;71.40;;;;;;4933505;29;20118;-78
2024/01/20 06:43:41;;;;;;;1.10;0.90;;;4.30;71.70;;;;;;4927906;29;20054;-79
2024/01/20 06:46:07;;;;;;;1.77;0.80;;;4.30;70.10;;;;;;4931526;29;20498;-79
2024/01/20 06:48:34;;;;;;;2.30;1.08;;;4.30;71.40;;;;;;4936593;29;20032;-79
2024/01/20 06:51:03;;;;;;;1.25;0.80;;;4.30;71.90;;;;;;4936363;29;20031;-79
2024/01/20 06:53:30;;;;;;;2.92;1.20;;;4.40;71.80;;;;;;4931002;29;20033;-79
2024/01/20 06:55:56;;;;;;;2.08;1.02;;;4.40;71.60;;;;;;4942594;29;20514;-79
2024/01/20 06:58:22;;;;;;;1.45;1.00;;;4.40;70.80;;;;;;4921878;29;20119;-79
2024/01/20 07:00:48;;;;;;;2.60;1.13;;;4.40;71.10;;;;;;4937612;29;20039;-80
2024/01/20 07:03:17;;;;;;;2.92;1.35;;;4.40;71.00;;;;;;4939497;29;20110;-79
2024/01/20 07:05:43;;;;;;;2.03;1.17;;;4.50;71.70;;;;;;4937214;29;20106;-79
2024/01/20 07:08:11;;;;;;;2.15;1.02;;;4.50;71.50;;;;;;4938253;29;20114;-79
2024/01/20 07:10:37;;;;;;;2.15;1.13;;;4.50;71.00;;;;;;4937864;29;20382;-80
2024/01/20 07:13:02;;;;;;;2.58;1.33;;;4.50;71.40;;;;;;4947086;29;20024;-79
2024/01/20 07:15:28;;;;;;;2.38;0.95;;;4.50;70.80;;;;;;4944733;29;20366;-83
2024/01/20 07:17:57;;;;;;;2.40;0.70;;;4.50;70.90;;;;;;4948002;29;20034;-84
2024/01/20 07:20:23;;;;;;;1.90;1.17;;;4.50;70.60;;;;;;4921081;29;20393;-85
2024/01/20 07:22:49;;;;;;;1.80;0.90;;;4.50;70.90;;;;;;4947322;29;20106;-83
2024/01/20 07:25:16;;;;;;;1.27;0.90;;;4.50;70.20;;;;;;4947193;29;20036;-83
2024/01/20 07:27:42;;;;;;;1.30;0.75;;;4.50;69.90;;;;;;4944717;29;20360;-84
2024/01/20 07:30:08;;;;;;;1.33;0.82;;;4.50;69.10;;;;;;4928472;29;20039;-82
2024/01/20 07:32:35;;;;;;;1.60;1.00;;;4.50;67.90;;;;;;4948206;29;20028;-82
2024/01/20 07:35:01;;;;;;;1.20;0.90;;;4.50;68.70;;;;;;4952234;29;20041;-88
2024/01/20 07:37:28;;;;;;;2.85;1.10;;;4.50;69.40;;;;;;4948882;29;20027;-83
2024/01/20 07:39:53;;;;;;;1.83;0.88;;;4.50;69.70;;;;;;4941377;29;20024;-87
2024/01/20 07:42:19;;;;;;;1.63;0.90;;;4.60;69.90;;;;;;4945381;29;20050;-87
2024/01/20 07:44:45;;;;;;;0.85;0.80;;;4.60;69.50;;;;;;4952533;29;20039;-82
2024/01/20 07:47:13;;;;;;;3.25;1.63;;;4.60;68.60;;;;;;4941233;29;20040;-83
2024/01/20 07:49:38;;;;;;;3.53;1.40;;;4.60;69.90;;;;;;4947418;29;20035;-83
2024/01/20 07:52:04;;;;;;;3.45;1.85;;;4.70;68.50;;;;;;4916585;29;20032;-84
2024/01/20 07:54:29;;;;;;;2.78;1.30;;;4.70;69.20;;;;;;4943575;29;20154;-83
2024/01/20 07:56:55;;;;;;;2.22;1.48;;;4.60;67.80;;;;;;4943641;29;20035;-82
2024/01/20 07:59:21;;;;;;;2.70;1.77;;;4.60;68.40;;;;;;4941460;29;20773;-83
2024/01/20 08:01:46;;;;;;;1.80;1.20;;;4.60;67.60;;;;;;4923459;29;20459;-82
2024/01/20 08:04:12;;;;;;;2.95;1.20;;;4.60;68.10;;;;;;4925124;29;20039;-85
2024/01/20 08:06:38;;;;;;;3.70;1.20;;;4.60;68.40;;;;;;4944133;29;20040;-85
2024/01/20 08:09:04;;;;;;;1.95;1.00;;;4.60;66.80;;;;;;4937455;29;20087;-85
2024/01/20 08:11:29;;;;;;;2.75;1.52;;;4.60;67.50;;;;;;4936762;29;20027;-85
2024/01/20 08:13:55;;;;;;;1.63;1.23;;;4.60;67.50;;;;;;4937548;29;20537;-86
2024/01/20 08:16:21;;;;;;;1.25;0.98;;;4.60;66.70;;;;;;4937378;29;20522;-86
2024/01/20 08:18:46;;;;;;;1.88;1.10;;;4.70;67.90;;;;;;4920591;29;20487;-85
2024/01/20 08:21:12;;;;;;;2.08;1.05;;;4.70;67.90;;;;;;4920642;29;20031;-86
2024/01/20 08:23:38;;;;;;;1.73;1.17;;;4.80;67.90;;;;;;4920300;29;20031;-87
2024/01/20 08:26:04;;;;;;;1.50;1.00;;;4.90;68.20;;;;;;4941734;29;20023;-87
2024/01/20 08:28:30;;;;;;;2.63;1.08;;;4.90;67.90;;;;;;4943830;29;20035;-87
2024/01/20 08:30:55;;;;;;;2.13;1.33;;;5.00;67.80;;;;;;4935829;29;20035;-82
2024/01/20 08:33:21;;;;;;;1.13;1.00;;;5.00;68.10;;;;;;4936178;29;20028;-82
2024/01/20 08:35:47;;;;;;;1.58;0.90;;;5.10;66.90;;;;;;4935586;29;20032;-82
2024/01/20 08:38:12;;;;;;;2.25;1.10;;;5.20;66.70;;;;;;4936095;29;20024;-82
2024/01/20 08:40:38;;;;;;;2.90;1.20;;;5.20;67.60;;;;;;4918037;29;20035;-82
2024/01/20 08:43:03;;;;;;;2.90;1.00;;;5.30;67.80;;;;;;4936121;29;20020;-82
2024/01/20 08:45:29;;;;;;;2.72;1.10;;;5.40;68.00;;;;;;4940991;29;20040;-82
2024/01/20 08:47:55;;;;;;;1.60;1.13;;;5.50;67.60;;;;;;4936503;29;20027;-82
2024/01/20 08:50:20;;;;;;;2.20;1.33;;;5.60;67.10;;;;;;4937125;29;20503;-82
2024/01/20 08:52:47;;;;;;;2.15;1.05;;;5.80;66.90;;;;;;4937009;29;20023;-81
2024/01/20 08:55:12;;;;;;;1.50;1.00;;;6.00;67.10;;;;;;4922120;29;20035;-82
2024/01/20 08:57:38;;;;;;;1.95;1.00;;;6.10;66.70;;;;;;4918306;29;20034;-82
2024/01/20 09:00:05;;;;;;;1.20;0.98;;;6.30;66.10;;;;;;4919102;29;20413;-87
2024/01/20 09:02:31;;;;;;;2.53;1.10;;;6.50;64.90;;;;;;4919522;29;20043;-86
2024/01/20 09:04:58;;;;;;;2.47;1.10;;;6.70;65.60;;;;;;4940332;29;20038;-85
2024/01/20 09:07:23;;;;;;;1.98;1.02;;;6.80;65.60;;;;;;4937386;29;20470;-85
2024/01/20 09:09:49;;;;;;;1.67;1.20;;;6.90;63.00;;;;;;4941736;29;20082;-85
2024/01/20 09:12:15;;;;;;;3.20;2.17;;;7.10;72.60;;;;;;4940896;29;20024;-85
2024/01/20 09:14:40;;;;;;;1.83;1.27;;;7.30;69.90;;;;;;4938935;29;20070;-84
2024/01/20 09:17:06;;;;;;;1.30;1.10;;;7.40;68.40;;;;;;4923286;29;20028;-86
2024/01/20 09:19:32;;;;;;;3.75;2.17;;;7.50;66.80;;;;;;4937899;29;20132;-83
2024/01/20 09:21:58;;;;;;;1.67;1.00;;;7.60;65.40;;;;;;4935540;29;20470;-82
2024/01/20 09:24:23;;;;;;;4.78;1.30;;;7.60;65.90;;;;;;4942858;29;20050;-82
2024/01/20 09:26:49;;;;;;;3.33;1.23;;;7.60;66.50;;;;;;4935903;29;20036;-82
2024/01/20 09:29:15;;;;;;;2.03;1.40;;;7.70;67.10;;;;;;4935623;29;20106;-82
2024/01/20 09:31:40;;;;;;;2.97;1.50;;;7.80;65.00;;;;;;4935925;29;20032;-82
2024/01/20 09:34:06;;;;;;;1.50;1.15;;;7.80;65.60;;;;;;4934557;29;20027;-82
2024/01/20 09:36:32;;;;;;;1.90;1.10;;;7.90;66.10;;;;;;4943412;29;20143;-82
2024/01/20 09:38:57;;;;;;;2.90;1.45;;;7.90;65.40;;;;;;4918525;29;20055;-82
2024/01/20 09:41:24;;;;;;;4.47;1.25;;;8.00;63.60;;;;;;4935703;29;20110;-82
2024/01/20 09:43:50;;;;;;;1.85;1.02;;;8.10;64.40;;;;;;4918671;29;20093;-82
2024/01/20 09:46:17;;;;;;;1.67;0.95;;;8.20;65.40;;;;;;4917710;29;20041;-81
2024/01/20 09:48:44;;;;;;;1.95;1.00;;;8.20;63.40;;;;;;4918162;29;20486;-86
2024/01/20 09:51:10;;;;;;;3.70;0.70;;;8.30;64.30;;;;;;4936633;29;20039;-84
2024/01/20 09:53:39;;;;;;;2.08;0.88;;;8.40;63.30;;;;;;4936765;29;20028;-83
2024/01/20 09:56:05;;;;;;;1.60;0.98;;;8.50;62.90;;;;;;4942118;29;20027;-82
2024/01/20 09:58:33;;;;;;;4.20;0.98;;;8.60;62.60;;;;;;4937324;29;20031;-83
2024/01/20 10:01:01;;;;;;;0.95;0.57;;;8.70;62.70;;;;;;4941772;29;20031;-83
2024/01/20 10:03:30;;;;;;;2.50;0.77;;;8.90;68.20;;;;;;4940299;29;20079;-84
2024/01/20 10:05:57;;;;;;;2.70;0.98;;;9.20;70.90;;;;;;4933681;29;20031;-84
2024/01/20 10:08:23;;;;;;;2.25;0.80;;;9.40;67.80;;;;;;4936073;29;20038;-83
2024/01/20 10:10:49;;;;;;;1.55;1.10;;;9.50;64.60;;;;;;4917888;29;20038;-86
2024/01/20 10:13:15;;;;;;;4.05;1.33;;;9.60;62.30;;;;;;4938144;29;20035;-83
2024/01/20 10:15:41;;;;;;;1.35;0.80;;;9.60;54.60;;;;;;4942501;29;20035;-85
2024/01/20 10:18:10;;;;;;;1.20;0.80;;;9.60;59.20;;;;;;4928942;29;20035;-84
2024/01/20 10:20:37;;;;;;;1.27;0.95;;;9.70;58.80;;;;;;4937501;29;20038;-84
2024/01/20 10:23:05;;;;;;;1.30;0.85;;;9.70;55.30;;;;;;4948360;28;20036;-85
2024/01/20 10:25:31;;;;;;;1.45;0.65;;;9.60;55.60;;;;;;4941878;29;20028;-85
2024/01/20 10:27:56;;;;;;;1.00;0.60;;;9.60;55.90;;;;;;4940977;29;20036;-85
2024/01/20 10:30:23;;;;;;;1.00;0.80;;;9.60;56.90;;;;;;4943690;29;20514;-84
2024/01/20 10:32:49;;;;;;;1.10;0.70;;;9.80;54.80;;;;;;4942002;29;20063;-84
2024/01/20 10:35:15;;;;;;;1.27;0.82;;;9.60;52.50;;;;;;4940221;29;20121;-84
2024/01/20 10:37:46;;;;;;;1.10;0.75;;;9.60;54.10;;;;;;4922372;29;20470;-84
2024/01/20 10:40:15;;;;;;;0.65;0.52;;;9.50;50.20;;;;;;4939226;29;20118;-84
2024/01/20 10:42:45;;;;;;;1.10;0.70;;;9.40;53.20;;;;;;4943360;29;20036;-83
2024/01/20 10:45:18;;;;;;;1.73;0.90;;;9.20;52.90;;;;;;4939476;29;20271;-84
2024/01/20 10:48:11;;;;;;;2.20;1.08;;;9.10;50.70;;;;;;4922311;29;20023;-84
2024/01/20 10:50:46;;;;;;;1.30;0.90;;;9.20;53.00;;;;;;4924809;29;20110;-84
2024/01/20 10:53:12;;;;;;;1.33;0.90;;;9.40;53.00;;;;;;4941466;29;20166;-84
2024/01/20 10:55:40;;;;;;;1.73;0.80;;;9.40;49.70;;;;;;4943024;29;20034;-84
2024/01/20 10:58:08;;;;;;;1.75;0.93;;;9.50;48.00;;;;;;4940865;29;20087;-84
2024/01/20 11:00:36;;;;;;;1.17;0.80;;;9.60;49.90;;;;;;4939228;29;20044;-84
2024/01/20 11:03:03;;;;;;;0.90;0.70;;;9.70;49.80;;;;;;4938181;29;20043;-83
2024/01/20 11:05:31;;;;;;;1.50;0.82;;;9.70;48.90;;;;;;4955171;29;20494;-84
2024/01/20 11:08:02;;;;;;;2.85;0.73;;;9.90;49.10;;;;;;4926979;29;20035;-84
2024/01/20 11:10:28;;;;;;;0.63;0.60;;;10.10;49.40;;;;;;4939012;29;20553;-82
2024/01/20 11:13:04;;;;;;;0.90;0.80;;;10.20;50.70;;;;;;4939122;29;20024;-83
2024/01/20 11:15:30;;;;;;;4.18;1.33;;;10.30;48.70;;;;;;4920624;29;20032;-85
2024/01/20 11:17:56;;;;;;;1.38;0.82;;;10.40;50.20;;;;;;4921391;29;20024;-85
2024/01/20 11:20:22;;;;;;;1.30;1.05;;;10.70;50.80;;;;;;4931313;29;20506;-83
2024/01/20 11:22:48;;;;;;;1.00;0.80;;;10.90;47.10;;;;;;4939017;29;20082;-83
2024/01/20 11:25:14;;;;;;;2.67;0.70;;;11.10;50.80;;;;;;4938528;29;20474;-84
2024/01/20 11:27:47;;;;;;;2.53;0.75;;;11.30;50.40;;;;;;4920068;29;20024;-82
2024/01/20 11:30:13;;;;;;;0.68;0.40;;;11.60;48.30;;;;;;4919985;29;20036;-82
2024/01/20 11:32:39;;;;;;;1.40;0.60;;;11.80;49.60;;;;;;4938076;29;20103;-86
2024/01/20 11:35:05;;;;;;;1.33;0.60;;;12.00;49.60;;;;;;4937607;29;20063;-86
2024/01/20 11:37:34;;;;;;;0.90;0.70;;;12.00;45.00;;;;;;4939383;29;20078;-86
2024/01/20 11:40:07;;;;;;;1.17;0.65;;;11.80;44.70;;;;;;4938795;29;20035;-84
2024/01/20 11:42:34;;;;;;;1.92;0.68;;;11.70;46.90;;;;;;4906767;29;20537;-86
2024/01/20 11:45:01;;;;;;;0.80;0.60;;;11.60;46.00;;;;;;4938597;29;20027;-86
2024/01/20 11:47:27;;;;;;;1.17;0.77;;;11.80;47.20;;;;;;4930579;29;20055;-86
2024/01/20 11:49:54;;;;;;;1.13;0.70;;;12.00;47.00;;;;;;4942180;29;20398;-87
2024/01/20 11:52:23;;;;;;;0.82;0.70;;;12.60;47.60;;;;;;4922500;29;20486;-86
2024/01/20 11:54:49;;;;;;;1.05;0.70;;;13.50;47.80;;;;;;4938668;29;20035;-86
2024/01/20 11:57:35;;;;;;;2.67;1.00;;;14.90;43.30;;;;;;4937832;29;20036;-86
2024/01/20 12:00:02;;;;;;;5.05;0.90;;;16.60;38.80;;;;;;4939275;29;20398;-86
2024/01/20 12:02:51;;;;;;;0.73;0.52;;;17.40;34.50;;;;;;4814973;23;20068;-84
2024/01/20 12:05:16;;;;;;;2.38;0.90;;;18.20;36.60;;;;;;4929016;29;20175;-84
2024/01/20 12:07:42;;;;;;;1.67;0.90;;;19.40;37.90;;;;;;4931308;29;20106;-84
2024/01/20 12:10:08;;;;;;;1.13;0.93;;;20.50;34.20;;;;;;4930724;29;20029;-84
2024/01/20 12:12:34;;;;;;;1.02;0.82;;;21.50;35.20;;;;;;4928905;29;20024;-83
2024/01/20 12:15:05;;;;;;;1.63;0.70;;;22.50;34.40;;;;;;4905811;29;20039;-84
2024/01/20 12:17:31;;;;;;;1.33;0.80;;;23.20;32.70;;;;;;4936973;29;20028;-84
2024/01/20 12:19:57;;;;;;;1.30;0.90;;;23.70;31.40;;;;;;4937968;29;20112;-84
2024/01/20 12:22:22;;;;;;;1.25;0.85;;;23.90;29.60;;;;;;4937301;29;20051;-84
2024/01/20 12:24:48;;;;;;;2.67;1.50;;;24.20;29.70;;;;;;4927919;29;20036;-83
2024/01/20 12:27:16;;;;;;;2.78;1.10;;;24.40;29.00;;;;;;4933197;29;20028;-85
2024/01/20 12:29:41;;;;;;;3.58;1.52;;;24.40;28.80;;;;;;4937651;29;20111;-84
2024/01/20 12:32:08;;;;;;;2.28;1.30;;;24.60;28.90;;;;;;4937219;29;20126;-84
2024/01/20 12:34:34;;;;;;;1.20;1.10;;;24.70;27.90;;;;;;4937133;29;20733;-84
2024/01/20 12:37:00;;;;;;;1.63;0.85;;;24.60;28.50;;;;;;4937102;29;20107;-83
2024/01/20 12:39:25;;;;;;;2.03;1.25;;;24.40;27.50;;;;;;4920443;29;20068;-83
2024/01/20 12:41:53;;;;;;;1.23;0.93;;;24.30;28.60;;;;;;4918323;29;20043;-83
2024/01/20 12:44:20;;;;;;;2.65;1.20;;;24.10;28.10;;;;;;4918294;29;20028;-84
2024/01/20 12:46:46;;;;;;;1.73;0.95;;;24.00;28.80;;;;;;4943105;29;20024;-87
2024/01/20 12:49:12;;;;;;;1.83;1.23;;;23.70;28.50;;;;;;4941409;29;20482;-87
2024/01/20 12:51:39;;;;;;;1.90;0.93;;;23.10;28.40;;;;;;4939311;29;20030;-87